Time,TemperatureF,DewpointF,PressureIn,WindDirection,WindDirectionDegrees,WindSpeedMPH,WindSpeedGustMPH,Humidity,HourlyPrecipIn,Conditions,Clouds,dailyrainin,SolarRadiationWatts/m^2,SoftwareType,DateUTC
2013-07-23 00:22:00,72.0,72.0,-100.00,ESE,120,6.0,13.0,100,0.00,,,0.00,1.000000,,2013-07-23 04:22:00,
2013-07-23 00:32:00,72.0,72.0,-100.00,ESE,120,6.0,13.0,100,0.00,,,0.00,1.000000,,2013-07-23 04:32:00,
2013-07-23 00:43:00,72.0,72.0,-100.00,ESE,120,6.0,13.0,100,0.00,,,0.00,1.000000,,2013-07-23 04:43:00,
2013-07-23 00:53:00,72.0,72.0,-100.00,ESE,120,6.0,13.0,100,0.00,,,0.00,1.000000,,2013-07-23 04:53:00,
2013-07-23 01:22:00,72.0,72.0,-100.00,ESE,119,5.0,10.0,100,0.00,,,0.00,1.000000,,2013-07-23 05:22:00,
2013-07-23 01:33:00,72.0,72.0,-100.00,ESE,119,5.0,10.0,100,0.00,,,0.00,1.000000,,2013-07-23 05:33:00,
2013-07-23 01:44:00,72.0,72.0,-100.00,ESE,119,5.0,10.0,100,0.00,,,0.00,1.000000,,2013-07-23 05:44:00,
2013-07-23 01:52:00,72.0,72.0,-100.00,ESE,119,5.0,10.0,100,0.00,,,0.00,1.000000,,2013-07-23 05:52:00,
2013-07-23 02:22:00,71.0,71.0,-100.00,SE,130,4.0,11.0,100,0.00,,,0.00,1.000000,,2013-07-23 06:22:00,
2013-07-23 02:33:00,71.0,71.0,-100.00,SE,130,4.0,11.0,100,0.00,,,0.00,1.000000,,2013-07-23 06:33:00,
2013-07-23 02:42:00,71.0,71.0,-100.00,SE,130,4.0,11.0,100,0.00,,,0.00,1.000000,,2013-07-23 06:42:00,
2013-07-23 02:52:00,71.0,71.0,-100.00,SE,130,4.0,11.0,100,0.00,,,0.00,1.000000,,2013-07-23 06:52:00,
2013-07-23 03:22:00,70.0,70.0,-100.00,West,278,0.0,10.0,100,0.00,,,0.00,1.000000,,2013-07-23 07:22:00,
2013-07-23 03:33:00,70.0,70.0,-100.00,West,278,0.0,10.0,100,0.00,,,0.00,1.000000,,2013-07-23 07:33:00,
2013-07-23 03:42:00,70.0,70.0,-100.00,West,278,0.0,10.0,100,0.00,,,0.00,1.000000,,2013-07-23 07:42:00,
2013-07-23 03:52:00,70.0,70.0,-100.00,West,278,0.0,10.0,100,0.00,,,0.00,1.000000,,2013-07-23 07:52:00,
2013-07-23 04:43:00,71.0,71.0,-100.00,NE,44,1.0,4.0,100,0.00,,,0.00,1.000000,,2013-07-23 08:43:00,
2013-07-23 04:52:00,71.0,71.0,-100.00,NE,44,1.0,4.0,100,0.00,,,0.00,1.000000,,2013-07-23 08:52:00,
2013-07-23 05:42:00,70.0,70.0,-100.00,WSW,255,0.0,5.0,100,0.00,,,0.00,1.000000,,2013-07-23 09:42:00,
2013-07-23 05:53:00,70.0,70.0,-100.00,WSW,255,0.0,5.0,100,0.00,,,0.00,1.000000,,2013-07-23 09:53:00,
2013-07-23 06:22:00,70.0,70.0,-100.00,WSW,246,0.0,0.0,100,0.00,,,0.00,1.000000,,2013-07-23 10:22:00,
2013-07-23 06:32:00,70.0,70.0,-100.00,WSW,246,0.0,0.0,100,0.00,,,0.00,1.000000,,2013-07-23 10:32:00,
2013-07-23 06:44:00,70.0,70.0,-100.00,WSW,246,0.0,0.0,100,0.00,,,0.00,1.000000,,2013-07-23 10:44:00,
2013-07-23 06:52:00,70.0,70.0,-100.00,WSW,246,0.0,0.0,100,0.00,,,0.00,1.000000,,2013-07-23 10:52:00,
2013-07-23 07:43:00,70.0,70.0,-100.00,SW,227,2.0,2.0,100,0.00,,,0.00,8.000000,,2013-07-23 11:43:00,
2013-07-23 07:52:00,70.0,70.0,-100.00,SW,227,2.0,2.0,100,0.00,,,0.00,8.000000,,2013-07-23 11:52:00,
2013-07-23 08:33:00,73.0,73.0,-100.00,WSW,247,1.0,4.0,100,0.00,,,0.00,95.000000,,2013-07-23 12:33:00,
2013-07-23 08:43:00,73.0,73.0,-100.00,WSW,247,1.0,4.0,100,0.00,,,0.00,95.000000,,2013-07-23 12:43:00,
2013-07-23 09:22:00,76.0,75.0,-100.00,WNW,290,3.0,7.0,98,0.00,,,0.00,352.000000,,2013-07-23 13:22:00,
2013-07-23 09:32:00,76.0,75.0,-100.00,WNW,290,3.0,7.0,98,0.00,,,0.00,352.000000,,2013-07-23 13:32:00,
2013-07-23 09:43:00,76.0,75.0,-100.00,WNW,290,3.0,7.0,98,0.00,,,0.00,352.000000,,2013-07-23 13:43:00,
2013-07-23 09:52:00,76.0,75.0,-100.00,WNW,290,3.0,7.0,98,0.00,,,0.00,352.000000,,2013-07-23 13:52:00,
2013-07-23 10:44:00,75.0,74.0,-100.00,West,267,4.0,9.0,97,0.00,,,0.00,317.000000,,2013-07-23 14:44:00,
2013-07-23 10:53:00,75.0,74.0,-100.00,West,267,4.0,9.0,97,0.00,,,0.00,317.000000,,2013-07-23 14:53:00,
2013-07-23 11:24:00,77.0,74.0,-100.00,West,260,5.0,9.0,91,0.00,,,0.00,445.000000,,2013-07-23 15:24:00,
2013-07-23 11:32:00,77.0,74.0,-100.00,West,260,5.0,9.0,91,0.00,,,0.00,445.000000,,2013-07-23 15:32:00,
2013-07-23 11:43:00,77.0,74.0,-100.00,West,260,5.0,9.0,91,0.00,,,0.00,445.000000,,2013-07-23 15:43:00,
2013-07-23 11:52:00,77.0,74.0,-100.00,West,260,5.0,9.0,91,0.00,,,0.00,445.000000,,2013-07-23 15:52:00,
2013-07-23 12:52:00,78.0,75.0,-100.00,West,270,5.0,12.0,91,0.00,,,0.00,535.000000,,2013-07-23 16:52:00,
2013-07-23 13:32:00,76.0,72.0,-100.00,West,275,5.0,13.0,86,0.00,,,0.00,522.000000,,2013-07-23 17:32:00,
2013-07-23 13:42:00,76.0,72.0,-100.00,West,275,5.0,13.0,86,0.00,,,0.00,522.000000,,2013-07-23 17:42:00,
2013-07-23 13:54:00,76.0,72.0,-100.00,West,275,5.0,13.0,86,0.00,,,0.00,522.000000,,2013-07-23 17:54:00,
2013-07-23 14:26:00,78.0,71.0,-100.00,West,259,5.0,11.0,79,0.00,,,0.00,600.000000,,2013-07-23 18:26:00,
2013-07-23 14:48:00,78.0,71.0,-100.00,West,259,5.0,11.0,79,0.00,,,0.00,600.000000,,2013-07-23 18:48:00,
2013-07-23 14:55:00,78.0,71.0,-100.00,West,259,5.0,11.0,79,0.00,,,0.00,600.000000,,2013-07-23 18:55:00,
2013-07-23 15:35:00,77.0,73.0,-100.00,West,261,3.0,12.0,88,0.00,,,0.00,412.000000,,2013-07-23 19:35:00,
2013-07-23 15:54:00,77.0,73.0,-100.00,West,261,3.0,12.0,88,0.00,,,0.00,412.000000,,2013-07-23 19:54:00,
2013-07-23 16:35:00,77.0,72.0,-100.00,WSW,255,5.0,11.0,86,0.00,,,0.00,463.000000,,2013-07-23 20:35:00,
2013-07-23 16:46:00,77.0,72.0,-100.00,WSW,255,5.0,11.0,86,0.00,,,0.00,463.000000,,2013-07-23 20:46:00,
2013-07-23 16:56:00,81.0,73.0,-100.00,West,275,3.0,10.0,76,0.00,,,0.00,626.000000,,2013-07-23 20:56:00,
2013-07-23 17:24:00,81.0,73.0,-100.00,West,275,3.0,10.0,76,0.00,,,0.00,626.000000,,2013-07-23 21:24:00,
2013-07-23 17:38:00,81.0,73.0,-100.00,West,275,3.0,10.0,76,0.00,,,0.00,626.000000,,2013-07-23 21:38:00,
2013-07-23 17:47:00,81.0,73.0,-100.00,West,275,3.0,10.0,76,0.00,,,0.00,626.000000,,2013-07-23 21:47:00,
2013-07-23 17:56:00,82.0,72.0,-100.00,WSW,245,4.0,12.0,73,0.00,,,0.00,459.000000,,2013-07-23 21:56:00,
2013-07-23 18:47:00,82.0,72.0,-100.00,WSW,245,4.0,12.0,73,0.00,,,0.00,459.000000,,2013-07-23 22:47:00,
2013-07-23 18:56:00,79.0,73.0,-100.00,WSW,256,3.0,11.0,82,0.00,,,0.00,116.000000,,2013-07-23 22:56:00,
2013-07-23 19:26:00,79.0,73.0,-100.00,WSW,256,3.0,11.0,82,0.00,,,0.00,116.000000,,2013-07-23 23:26:00,
2013-07-23 19:36:00,79.0,73.0,-100.00,WSW,256,3.0,11.0,82,0.00,,,0.00,116.000000,,2013-07-23 23:36:00,
2013-07-23 19:46:00,79.0,73.0,-100.00,WSW,256,3.0,11.0,82,0.00,,,0.00,116.000000,,2013-07-23 23:46:00,
2013-07-23 20:50:00,74.0,74.0,-100.00,SW,233,0.0,6.0,100,0.00,,,0.00,46.000000,,2013-07-24 00:50:00,
2013-07-23 20:55:00,74.0,74.0,-100.00,SW,233,0.0,6.0,100,0.00,,,0.00,46.000000,,2013-07-24 00:55:00,
2013-07-23 20:56:00,71.0,71.0,-100.00,WSW,254,0.0,0.0,100,0.00,,,0.00,5.000000,,2013-07-24 00:56:00,
2013-07-23 22:27:00,69.0,69.0,-100.00,West,263,0.0,0.0,100,0.00,,,0.00,1.000000,,2013-07-24 02:27:00,
2013-07-23 22:39:00,69.0,69.0,-100.00,West,263,0.0,0.0,100,0.00,,,0.00,1.000000,,2013-07-24 02:39:00,
2013-07-23 22:48:00,69.0,69.0,-100.00,West,263,0.0,0.0,100,0.00,,,0.00,1.000000,,2013-07-24 02:48:00,
2013-07-23 22:55:00,69.0,69.0,-100.00,West,263,0.0,0.0,100,0.00,,,0.00,1.000000,,2013-07-24 02:55:00,
2013-07-23 23:46:00,67.0,67.0,-100.00,West,261,0.0,3.0,100,0.00,,,0.00,1.000000,,2013-07-24 03:46:00,